sensor_id;sensor_type;location;lat;lon;timestamp;temperature;humidity
212;DHT22;16228;48.800;9.002;2023-03-23T00:00:56;13.50;96.90
212;DHT22;16228;48.800;9.002;2023-03-23T00:03:23;13.50;96.80
212;DHT22;16228;48.800;9.002;2023-03-23T00:05:54;13.60;96.90
212;DHT22;16228;48.800;9.002;2023-03-23T00:08:26;13.60;96.90
212;DHT22;16228;48.800;9.002;2023-03-23T00:10:53;13.70;96.90
212;DHT22;16228;48.800;9.002;2023-03-23T00:13:22;13.80;96.40
212;DHT22;16228;48.800;9.002;2023-03-23T00:15:50;13.80;96.30
212;DHT22;16228;48.800;9.002;2023-03-23T00:18:17;13.90;95.80
212;DHT22;16228;48.800;9.002;2023-03-23T00:20:48;13.90;96.10
212;DHT22;16228;48.800;9.002;2023-03-23T00:23:16;13.90;95.90
212;DHT22;16228;48.800;9.002;2023-03-23T00:25:48;13.90;95.60
212;DHT22;16228;48.800;9.002;2023-03-23T00:28:16;14.00;96.50
212;DHT22;16228;48.800;9.002;2023-03-23T00:30:43;14.00;96.30
212;DHT22;16228;48.800;9.002;2023-03-23T00:33:11;14.00;95.90
212;DHT22;16228;48.800;9.002;2023-03-23T00:35:40;14.00;95.90
212;DHT22;16228;48.800;9.002;2023-03-23T00:38:10;13.90;95.70
212;DHT22;16228;48.800;9.002;2023-03-23T00:40:37;14.00;96.00
212;DHT22;16228;48.800;9.002;2023-03-23T00:43:05;14.00;96.10
212;DHT22;16228;48.800;9.002;2023-03-23T00:45:33;14.00;96.80
212;DHT22;16228;48.800;9.002;2023-03-23T00:48:02;13.90;96.90
212;DHT22;16228;48.800;9.002;2023-03-23T00:50:30;13.90;96.60
212;DHT22;16228;48.800;9.002;2023-03-23T00:52:58;13.90;96.70
212;DHT22;16228;48.800;9.002;2023-03-23T00:55:25;13.90;96.70
212;DHT22;16228;48.800;9.002;2023-03-23T00:57:52;13.90;96.60
212;DHT22;16228;48.800;9.002;2023-03-23T01:00:21;13.90;96.80
212;DHT22;16228;48.800;9.002;2023-03-23T01:02:49;13.90;96.20
212;DHT22;16228;48.800;9.002;2023-03-23T01:05:17;14.00;95.90
212;DHT22;16228;48.800;9.002;2023-03-23T01:07:44;14.10;96.00
212;DHT22;16228;48.800;9.002;2023-03-23T01:10:12;14.10;95.00
212;DHT22;16228;48.800;9.002;2023-03-23T01:12:42;14.10;95.00
212;DHT22;16228;48.800;9.002;2023-03-23T01:15:13;14.20;94.40
212;DHT22;16228;48.800;9.002;2023-03-23T01:17:42;14.20;94.40
212;DHT22;16228;48.800;9.002;2023-03-23T01:20:11;14.20;93.80
212;DHT22;16228;48.800;9.002;2023-03-23T01:22:39;14.30;93.60
212;DHT22;16228;48.800;9.002;2023-03-23T01:25:08;14.30;93.70
212;DHT22;16228;48.800;9.002;2023-03-23T01:27:36;14.20;94.00
212;DHT22;16228;48.800;9.002;2023-03-23T01:30:04;14.20;94.10
212;DHT22;16228;48.800;9.002;2023-03-23T01:32:31;14.20;94.40
212;DHT22;16228;48.800;9.002;2023-03-23T01:35:00;14.10;94.10
212;DHT22;16228;48.800;9.002;2023-03-23T01:37:27;14.10;94.50
212;DHT22;16228;48.800;9.002;2023-03-23T01:39:55;14.10;94.80
212;DHT22;16228;48.800;9.002;2023-03-23T01:42:23;14.10;94.80
212;DHT22;16228;48.800;9.002;2023-03-23T01:47:55;14.00;95.10
212;DHT22;16228;48.800;9.002;2023-03-23T01:50:27;13.90;95.60
212;DHT22;16228;48.800;9.002;2023-03-23T01:52:56;13.90;95.50
212;DHT22;16228;48.800;9.002;2023-03-23T01:55:26;13.90;95.60
212;DHT22;16228;48.800;9.002;2023-03-23T01:57:55;13.90;95.20
212;DHT22;16228;48.800;9.002;2023-03-23T02:00:23;13.90;94.90
212;DHT22;16228;48.800;9.002;2023-03-23T02:02:52;13.90;94.50
212;DHT22;16228;48.800;9.002;2023-03-23T02:05:24;13.80;94.50
212;DHT22;16228;48.800;9.002;2023-03-23T02:07:57;13.80;94.30
212;DHT22;16228;48.800;9.002;2023-03-23T02:10:30;13.70;94.20
212;DHT22;16228;48.800;9.002;2023-03-23T02:12:58;13.70;94.20
212;DHT22;16228;48.800;9.002;2023-03-23T02:15:26;13.70;94.30
212;DHT22;16228;48.800;9.002;2023-03-23T02:17:59;13.70;94.40
212;DHT22;16228;48.800;9.002;2023-03-23T02:20:54;13.70;94.20
212;DHT22;16228;48.800;9.002;2023-03-23T02:23:54;13.60;94.20
212;DHT22;16228;48.800;9.002;2023-03-23T02:26:34;13.50;94.30
212;DHT22;16228;48.800;9.002;2023-03-23T02:35:19;13.50;95.50
212;DHT22;16228;48.800;9.002;2023-03-23T02:37:50;13.50;95.80
212;DHT22;16228;48.800;9.002;2023-03-23T02:40:21;13.50;95.60
212;DHT22;16228;48.800;9.002;2023-03-23T02:42:52;13.50;95.60
212;DHT22;16228;48.800;9.002;2023-03-23T02:45:21;13.50;95.70
212;DHT22;16228;48.800;9.002;2023-03-23T02:47:52;13.50;95.90
212;DHT22;16228;48.800;9.002;2023-03-23T02:50:23;13.50;95.50
212;DHT22;16228;48.800;9.002;2023-03-23T02:52:52;13.40;95.40
212;DHT22;16228;48.800;9.002;2023-03-23T02:55:21;13.50;95.70
212;DHT22;16228;48.800;9.002;2023-03-23T02:57:51;13.50;95.70
212;DHT22;16228;48.800;9.002;2023-03-23T03:00:19;13.50;95.80
212;DHT22;16228;48.800;9.002;2023-03-23T03:02:50;13.50;95.30
212;DHT22;16228;48.800;9.002;2023-03-23T03:05:30;13.60;95.10
212;DHT22;16228;48.800;9.002;2023-03-23T03:08:07;13.60;94.90
212;DHT22;16228;48.800;9.002;2023-03-23T03:10:42;13.60;94.60
212;DHT22;16228;48.800;9.002;2023-03-23T03:13:16;13.70;94.80
212;DHT22;16228;48.800;9.002;2023-03-23T03:15:51;13.80;95.00
212;DHT22;16228;48.800;9.002;2023-03-23T03:18:23;13.80;95.10
212;DHT22;16228;48.800;9.002;2023-03-23T03:20:55;13.70;94.80
212;DHT22;16228;48.800;9.002;2023-03-23T03:23:26;13.80;95.10
212;DHT22;16228;48.800;9.002;2023-03-23T03:25:55;13.70;94.70
212;DHT22;16228;48.800;9.002;2023-03-23T03:28:24;13.80;95.40
212;DHT22;16228;48.800;9.002;2023-03-23T03:30:54;13.70;94.80
212;DHT22;16228;48.800;9.002;2023-03-23T03:33:22;13.80;95.00
212;DHT22;16228;48.800;9.002;2023-03-23T03:35:53;13.70;94.80
212;DHT22;16228;48.800;9.002;2023-03-23T03:38:21;13.70;94.80
212;DHT22;16228;48.800;9.002;2023-03-23T03:40:48;13.70;95.10
212;DHT22;16228;48.800;9.002;2023-03-23T03:43:15;13.70;95.50
212;DHT22;16228;48.800;9.002;2023-03-23T03:45:42;13.70;95.50
212;DHT22;16228;48.800;9.002;2023-03-23T03:48:10;13.60;95.60
212;DHT22;16228;48.800;9.002;2023-03-23T03:50:37;13.70;95.70
212;DHT22;16228;48.800;9.002;2023-03-23T03:53:05;13.70;96.00
212;DHT22;16228;48.800;9.002;2023-03-23T03:55:33;13.70;96.10
212;DHT22;16228;48.800;9.002;2023-03-23T03:58:02;13.70;96.30
212;DHT22;16228;48.800;9.002;2023-03-23T04:00:30;13.70;96.50
212;DHT22;16228;48.800;9.002;2023-03-23T04:02:57;13.70;96.60
212;DHT22;16228;48.800;9.002;2023-03-23T04:05:25;13.70;96.60
212;DHT22;16228;48.800;9.002;2023-03-23T04:07:54;13.70;96.70
212;DHT22;16228;48.800;9.002;2023-03-23T04:10:29;13.70;96.70
212;DHT22;16228;48.800;9.002;2023-03-23T04:12:57;13.70;96.70
212;DHT22;16228;48.800;9.002;2023-03-23T04:15:24;13.70;96.80
212;DHT22;16228;48.800;9.002;2023-03-23T04:17:51;13.70;96.90
212;DHT22;16228;48.800;9.002;2023-03-23T04:20:19;13.70;96.70
212;DHT22;16228;48.800;9.002;2023-03-23T04:22:47;13.70;96.90
212;DHT22;16228;48.800;9.002;2023-03-23T04:25:16;13.70;96.50
212;DHT22;16228;48.800;9.002;2023-03-23T04:27:48;13.80;96.50
212;DHT22;16228;48.800;9.002;2023-03-23T04:30:19;13.80;95.90
212;DHT22;16228;48.800;9.002;2023-03-23T04:32:46;13.90;95.70
212;DHT22;16228;48.800;9.002;2023-03-23T04:35:17;14.00;95.60
212;DHT22;16228;48.800;9.002;2023-03-23T04:37:45;14.00;95.40
212;DHT22;16228;48.800;9.002;2023-03-23T04:40:12;14.10;94.90
212;DHT22;16228;48.800;9.002;2023-03-23T04:42:41;14.10;94.40
212;DHT22;16228;48.800;9.002;2023-03-23T04:45:16;14.20;94.50
212;DHT22;16228;48.800;9.002;2023-03-23T04:47:47;14.20;94.30
212;DHT22;16228;48.800;9.002;2023-03-23T04:50:20;14.20;94.20
212;DHT22;16228;48.800;9.002;2023-03-23T04:52:50;14.20;94.20
212;DHT22;16228;48.800;9.002;2023-03-23T04:55:18;14.20;94.10
212;DHT22;16228;48.800;9.002;2023-03-23T04:57:45;14.20;94.50
212;DHT22;16228;48.800;9.002;2023-03-23T05:00:15;14.20;94.70
212;DHT22;16228;48.800;9.002;2023-03-23T05:02:42;14.20;94.60
212;DHT22;16228;48.800;9.002;2023-03-23T05:05:11;14.20;94.50
212;DHT22;16228;48.800;9.002;2023-03-23T05:07:39;14.20;94.80
212;DHT22;16228;48.800;9.002;2023-03-23T05:10:08;14.20;94.70
212;DHT22;16228;48.800;9.002;2023-03-23T05:12:36;14.20;94.00
212;DHT22;16228;48.800;9.002;2023-03-23T05:15:04;14.20;93.90
212;DHT22;16228;48.800;9.002;2023-03-23T05:17:33;14.30;94.10
212;DHT22;16228;48.800;9.002;2023-03-23T05:20:01;14.20;94.40
212;DHT22;16228;48.800;9.002;2023-03-23T05:22:30;14.20;94.10
212;DHT22;16228;48.800;9.002;2023-03-23T05:24:58;14.20;94.40
212;DHT22;16228;48.800;9.002;2023-03-23T05:27:25;14.20;94.40
212;DHT22;16228;48.800;9.002;2023-03-23T05:29:53;14.20;94.30
212;DHT22;16228;48.800;9.002;2023-03-23T05:32:20;14.20;95.00
212;DHT22;16228;48.800;9.002;2023-03-23T05:34:56;14.20;94.60
212;DHT22;16228;48.800;9.002;2023-03-23T05:37:23;14.10;94.80
212;DHT22;16228;48.800;9.002;2023-03-23T05:39:52;14.10;95.20
212;DHT22;16228;48.800;9.002;2023-03-23T05:42:21;14.20;95.20
212;DHT22;16228;48.800;9.002;2023-03-23T05:44:49;14.20;95.10
212;DHT22;16228;48.800;9.002;2023-03-23T05:47:16;14.10;95.10
212;DHT22;16228;48.800;9.002;2023-03-23T05:49:43;14.20;95.70
212;DHT22;16228;48.800;9.002;2023-03-23T05:52:11;14.10;95.80
212;DHT22;16228;48.800;9.002;2023-03-23T05:54:39;14.10;96.00
212;DHT22;16228;48.800;9.002;2023-03-23T05:57:07;14.10;96.20
212;DHT22;16228;48.800;9.002;2023-03-23T05:59:34;14.00;96.50
212;DHT22;16228;48.800;9.002;2023-03-23T06:02:01;14.10;96.30
212;DHT22;16228;48.800;9.002;2023-03-23T06:04:28;14.10;96.60
212;DHT22;16228;48.800;9.002;2023-03-23T06:06:55;14.20;96.60
212;DHT22;16228;48.800;9.002;2023-03-23T06:09:24;14.20;96.20
212;DHT22;16228;48.800;9.002;2023-03-23T06:11:51;14.20;96.30
212;DHT22;16228;48.800;9.002;2023-03-23T06:14:18;14.30;96.60
212;DHT22;16228;48.800;9.002;2023-03-23T06:16:45;14.30;96.40
212;DHT22;16228;48.800;9.002;2023-03-23T06:19:12;14.30;96.00
212;DHT22;16228;48.800;9.002;2023-03-23T06:21:40;14.20;96.30
212;DHT22;16228;48.800;9.002;2023-03-23T06:24:07;14.20;96.90
212;DHT22;16228;48.800;9.002;2023-03-23T06:26:37;14.20;96.90
212;DHT22;16228;48.800;9.002;2023-03-23T06:29:05;14.20;96.90
212;DHT22;16228;48.800;9.002;2023-03-23T06:31:38;14.20;96.90
212;DHT22;16228;48.800;9.002;2023-03-23T06:34:06;14.10;96.90
212;DHT22;16228;48.800;9.002;2023-03-23T06:36:33;14.10;96.90
212;DHT22;16228;48.800;9.002;2023-03-23T06:39:00;14.10;96.90
212;DHT22;16228;48.800;9.002;2023-03-23T06:41:30;14.10;96.90
212;DHT22;16228;48.800;9.002;2023-03-23T06:43:58;14.10;96.90
212;DHT22;16228;48.800;9.002;2023-03-23T06:46:25;14.20;96.90
212;DHT22;16228;48.800;9.002;2023-03-23T06:48:52;14.30;96.90
212;DHT22;16228;48.800;9.002;2023-03-23T06:51:20;14.40;96.90
212;DHT22;16228;48.800;9.002;2023-03-23T06:53:47;14.60;96.90
212;DHT22;16228;48.800;9.002;2023-03-23T06:56:15;14.70;96.90
212;DHT22;16228;48.800;9.002;2023-03-23T06:58:42;14.80;96.90
212;DHT22;16228;48.800;9.002;2023-03-23T07:01:12;15.00;96.90
212;DHT22;16228;48.800;9.002;2023-03-23T07:03:41;15.00;96.90
212;DHT22;16228;48.800;9.002;2023-03-23T07:06:08;15.10;96.90
212;DHT22;16228;48.800;9.002;2023-03-23T07:08:36;15.00;96.90
212;DHT22;16228;48.800;9.002;2023-03-23T07:11:04;15.00;96.90
212;DHT22;16228;48.800;9.002;2023-03-23T07:13:31;15.00;96.90
212;DHT22;16228;48.800;9.002;2023-03-23T07:15:58;15.00;96.90
212;DHT22;16228;48.800;9.002;2023-03-23T07:18:27;15.00;96.90
212;DHT22;16228;48.800;9.002;2023-03-23T07:20:54;14.90;96.90
212;DHT22;16228;48.800;9.002;2023-03-23T07:23:21;14.90;96.90
212;DHT22;16228;48.800;9.002;2023-03-23T07:25:48;14.80;96.90
212;DHT22;16228;48.800;9.002;2023-03-23T07:28:15;14.80;96.90
212;DHT22;16228;48.800;9.002;2023-03-23T07:30:43;14.70;96.90
212;DHT22;16228;48.800;9.002;2023-03-23T07:33:10;14.80;96.90
212;DHT22;16228;48.800;9.002;2023-03-23T07:35:39;14.80;96.90
212;DHT22;16228;48.800;9.002;2023-03-23T07:38:06;14.90;96.90
212;DHT22;16228;48.800;9.002;2023-03-23T07:40:34;14.90;96.90
212;DHT22;16228;48.800;9.002;2023-03-23T07:43:02;15.00;96.90
212;DHT22;16228;48.800;9.002;2023-03-23T07:45:30;15.10;96.90
212;DHT22;16228;48.800;9.002;2023-03-23T07:47:57;15.30;96.90
212;DHT22;16228;48.800;9.002;2023-03-23T07:50:24;15.60;96.90
212;DHT22;16228;48.800;9.002;2023-03-23T07:52:54;15.90;96.00
212;DHT22;16228;48.800;9.002;2023-03-23T07:55:21;16.30;94.70
212;DHT22;16228;48.800;9.002;2023-03-23T07:57:50;16.60;94.30
212;DHT22;16228;48.800;9.002;2023-03-23T08:00:20;16.90;94.30
212;DHT22;16228;48.800;9.002;2023-03-23T08:02:50;17.00;92.90
212;DHT22;16228;48.800;9.002;2023-03-23T08:05:18;16.80;92.80
212;DHT22;16228;48.800;9.002;2023-03-23T08:07:46;16.60;93.20
212;DHT22;16228;48.800;9.002;2023-03-23T08:10:15;16.50;94.30
212;DHT22;16228;48.800;9.002;2023-03-23T08:12:44;16.30;94.50
212;DHT22;16228;48.800;9.002;2023-03-23T08:15:13;16.10;95.70
212;DHT22;16228;48.800;9.002;2023-03-23T08:17:41;16.10;96.30
212;DHT22;16228;48.800;9.002;2023-03-23T08:20:09;16.10;95.90
212;DHT22;16228;48.800;9.002;2023-03-23T08:22:39;16.10;96.30
212;DHT22;16228;48.800;9.002;2023-03-23T08:25:09;16.30;96.20
212;DHT22;16228;48.800;9.002;2023-03-23T08:27:38;16.50;96.10
212;DHT22;16228;48.800;9.002;2023-03-23T08:30:10;16.60;96.00
212;DHT22;16228;48.800;9.002;2023-03-23T08:32:37;16.70;95.80
212;DHT22;16228;48.800;9.002;2023-03-23T08:35:06;16.70;95.30
212;DHT22;16228;48.800;9.002;2023-03-23T08:37:34;16.60;95.90
212;DHT22;16228;48.800;9.002;2023-03-23T08:40:02;16.40;96.20
212;DHT22;16228;48.800;9.002;2023-03-23T08:42:35;16.40;96.90
212;DHT22;16228;48.800;9.002;2023-03-23T08:45:05;16.30;96.90
212;DHT22;16228;48.800;9.002;2023-03-23T08:47:34;16.20;96.90
212;DHT22;16228;48.800;9.002;2023-03-23T08:50:01;16.30;96.90
212;DHT22;16228;48.800;9.002;2023-03-23T08:52:28;16.20;96.90
212;DHT22;16228;48.800;9.002;2023-03-23T08:54:55;16.10;96.90
212;DHT22;16228;48.800;9.002;2023-03-23T08:57:22;16.10;96.90
212;DHT22;16228;48.800;9.002;2023-03-23T08:59:49;16.00;96.90
212;DHT22;16228;48.800;9.002;2023-03-23T09:02:18;16.00;96.90
212;DHT22;16228;48.800;9.002;2023-03-23T09:04:45;16.00;96.90
212;DHT22;16228;48.800;9.002;2023-03-23T09:07:12;15.90;96.90
212;DHT22;16228;48.800;9.002;2023-03-23T09:09:40;15.90;96.90
212;DHT22;16228;48.800;9.002;2023-03-23T09:12:08;15.90;96.90
212;DHT22;16228;48.800;9.002;2023-03-23T09:14:37;16.00;96.90
212;DHT22;16228;48.800;9.002;2023-03-23T09:17:04;16.20;96.90
212;DHT22;16228;48.800;9.002;2023-03-23T09:19:34;16.20;96.90
212;DHT22;16228;48.800;9.002;2023-03-23T09:22:01;16.40;96.90
212;DHT22;16228;48.800;9.002;2023-03-23T09:24:29;16.60;96.90
212;DHT22;16228;48.800;9.002;2023-03-23T09:26:56;16.60;96.90
212;DHT22;16228;48.800;9.002;2023-03-23T09:29:24;16.70;96.90
212;DHT22;16228;48.800;9.002;2023-03-23T09:31:52;16.90;96.20
212;DHT22;16228;48.800;9.002;2023-03-23T09:34:19;16.90;96.10
212;DHT22;16228;48.800;9.002;2023-03-23T09:36:48;16.90;96.10
212;DHT22;16228;48.800;9.002;2023-03-23T09:39:15;16.90;96.20
212;DHT22;16228;48.800;9.002;2023-03-23T09:41:59;17.00;96.50
212;DHT22;16228;48.800;9.002;2023-03-23T09:44:39;17.00;96.50
212;DHT22;16228;48.800;9.002;2023-03-23T09:47:14;17.00;96.10
212;DHT22;16228;48.800;9.002;2023-03-23T09:49:48;17.00;96.30
212;DHT22;16228;48.800;9.002;2023-03-23T09:52:18;17.00;96.10
212;DHT22;16228;48.800;9.002;2023-03-23T09:54:47;17.30;95.50
212;DHT22;16228;48.800;9.002;2023-03-23T09:57:20;17.40;94.40
212;DHT22;16228;48.800;9.002;2023-03-23T09:59:54;17.60;94.50
212;DHT22;16228;48.800;9.002;2023-03-23T10:02:27;17.60;94.30
212;DHT22;16228;48.800;9.002;2023-03-23T10:04:58;17.60;94.50
212;DHT22;16228;48.800;9.002;2023-03-23T10:07:29;17.70;94.20
212;DHT22;16228;48.800;9.002;2023-03-23T10:09:58;18.20;93.80
212;DHT22;16228;48.800;9.002;2023-03-23T10:12:34;18.60;92.70
212;DHT22;16228;48.800;9.002;2023-03-23T10:15:12;18.90;91.90
212;DHT22;16228;48.800;9.002;2023-03-23T10:17:45;18.90;91.70
212;DHT22;16228;48.800;9.002;2023-03-23T10:20:27;19.30;91.70
212;DHT22;16228;48.800;9.002;2023-03-23T10:23:05;19.70;90.70
212;DHT22;16228;48.800;9.002;2023-03-23T10:25:35;20.50;90.40
212;DHT22;16228;48.800;9.002;2023-03-23T10:28:08;20.80;86.80
212;DHT22;16228;48.800;9.002;2023-03-23T10:30:40;20.90;86.90
212;DHT22;16228;48.800;9.002;2023-03-23T10:33:15;20.80;86.50
212;DHT22;16228;48.800;9.002;2023-03-23T10:35:45;20.40;87.30
212;DHT22;16228;48.800;9.002;2023-03-23T10:38:19;19.80;88.90
212;DHT22;16228;48.800;9.002;2023-03-23T10:40:50;19.20;90.10
212;DHT22;16228;48.800;9.002;2023-03-23T10:43:19;18.90;91.80
212;DHT22;16228;48.800;9.002;2023-03-23T10:45:51;18.70;92.60
212;DHT22;16228;48.800;9.002;2023-03-23T10:48:25;18.50;92.90
212;DHT22;16228;48.800;9.002;2023-03-23T10:50:55;18.30;93.90
212;DHT22;16228;48.800;9.002;2023-03-23T10:53:28;18.40;93.30
212;DHT22;16228;48.800;9.002;2023-03-23T10:55:58;18.60;91.90
212;DHT22;16228;48.800;9.002;2023-03-23T10:58:27;18.80;92.10
212;DHT22;16228;48.800;9.002;2023-03-23T11:00:56;18.80;92.40
212;DHT22;16228;48.800;9.002;2023-03-23T11:06:09;18.80;91.40
212;DHT22;16228;48.800;9.002;2023-03-23T11:08:47;18.40;92.10
212;DHT22;16228;48.800;9.002;2023-03-23T11:11:17;18.30;93.50
212;DHT22;16228;48.800;9.002;2023-03-23T11:13:47;18.20;93.50
212;DHT22;16228;48.800;9.002;2023-03-23T11:16:25;18.20;93.70
212;DHT22;16228;48.800;9.002;2023-03-23T11:18:54;18.00;94.80
212;DHT22;16228;48.800;9.002;2023-03-23T11:21:23;18.10;95.30
212;DHT22;16228;48.800;9.002;2023-03-23T11:23:54;18.10;95.30
212;DHT22;16228;48.800;9.002;2023-03-23T11:26:25;18.10;95.10
212;DHT22;16228;48.800;9.002;2023-03-23T11:28:57;18.10;94.90
212;DHT22;16228;48.800;9.002;2023-03-23T11:31:28;18.10;94.70
212;DHT22;16228;48.800;9.002;2023-03-23T11:33:58;18.10;94.60
212;DHT22;16228;48.800;9.002;2023-03-23T11:36:36;18.30;94.90
212;DHT22;16228;48.800;9.002;2023-03-23T11:39:20;18.60;93.00
212;DHT22;16228;48.800;9.002;2023-03-23T11:41:47;18.70;92.60
212;DHT22;16228;48.800;9.002;2023-03-23T11:44:14;18.70;92.20
212;DHT22;16228;48.800;9.002;2023-03-23T11:46:49;18.70;93.00
212;DHT22;16228;48.800;9.002;2023-03-23T11:49:25;18.70;92.20
212;DHT22;16228;48.800;9.002;2023-03-23T11:51:55;18.70;92.50
212;DHT22;16228;48.800;9.002;2023-03-23T11:54:31;18.70;91.90
212;DHT22;16228;48.800;9.002;2023-03-23T11:56:59;18.70;92.60
212;DHT22;16228;48.800;9.002;2023-03-23T11:59:28;18.80;91.40
212;DHT22;16228;48.800;9.002;2023-03-23T12:02:00;18.80;91.40
212;DHT22;16228;48.800;9.002;2023-03-23T12:04:39;18.80;91.80
212;DHT22;16228;48.800;9.002;2023-03-23T12:07:26;18.80;92.00
212;DHT22;16228;48.800;9.002;2023-03-23T12:10:08;18.70;91.40
212;DHT22;16228;48.800;9.002;2023-03-23T12:12:42;18.80;92.00
212;DHT22;16228;48.800;9.002;2023-03-23T12:15:22;18.80;91.40
212;DHT22;16228;48.800;9.002;2023-03-23T12:17:57;19.00;90.80
212;DHT22;16228;48.800;9.002;2023-03-23T12:20:32;19.00;90.50
212;DHT22;16228;48.800;9.002;2023-03-23T12:23:17;19.00;92.50
212;DHT22;16228;48.800;9.002;2023-03-23T12:31:42;18.80;90.90
212;DHT22;16228;48.800;9.002;2023-03-23T12:34:18;19.10;91.60
212;DHT22;16228;48.800;9.002;2023-03-23T12:36:56;19.30;91.30
212;DHT22;16228;48.800;9.002;2023-03-23T12:39:50;20.00;89.90
212;DHT22;16228;48.800;9.002;2023-03-23T12:42:27;20.90;88.10
212;DHT22;16228;48.800;9.002;2023-03-23T12:45:02;21.50;85.40
212;DHT22;16228;48.800;9.002;2023-03-23T12:47:36;22.10;85.20
212;DHT22;16228;48.800;9.002;2023-03-23T12:50:10;22.10;82.90
212;DHT22;16228;48.800;9.002;2023-03-23T12:52:43;21.80;82.60
212;DHT22;16228;48.800;9.002;2023-03-23T12:55:19;21.50;83.70
212;DHT22;16228;48.800;9.002;2023-03-23T12:57:52;21.10;83.80
212;DHT22;16228;48.800;9.002;2023-03-23T13:00:25;20.80;85.00
212;DHT22;16228;48.800;9.002;2023-03-23T13:02:59;20.70;85.20
212;DHT22;16228;48.800;9.002;2023-03-23T13:05:34;20.50;85.20
212;DHT22;16228;48.800;9.002;2023-03-23T13:08:06;20.40;86.10
212;DHT22;16228;48.800;9.002;2023-03-23T13:10:40;20.40;86.60
212;DHT22;16228;48.800;9.002;2023-03-23T13:13:15;20.50;85.80
212;DHT22;16228;48.800;9.002;2023-03-23T13:15:50;20.50;85.00
212;DHT22;16228;48.800;9.002;2023-03-23T13:18:27;20.50;86.70
212;DHT22;16228;48.800;9.002;2023-03-23T13:20:59;20.40;86.10
212;DHT22;16228;48.800;9.002;2023-03-23T13:23:31;20.20;85.40
212;DHT22;16228;48.800;9.002;2023-03-23T13:26:01;19.90;86.10
212;DHT22;16228;48.800;9.002;2023-03-23T13:28:32;19.80;86.70
212;DHT22;16228;48.800;9.002;2023-03-23T13:31:01;19.90;86.00
212;DHT22;16228;48.800;9.002;2023-03-23T13:33:33;19.80;86.50
212;DHT22;16228;48.800;9.002;2023-03-23T13:36:12;19.60;87.30
212;DHT22;16228;48.800;9.002;2023-03-23T13:38:46;19.70;87.20
212;DHT22;16228;48.800;9.002;2023-03-23T13:41:15;19.70;87.20
212;DHT22;16228;48.800;9.002;2023-03-23T13:43:45;19.70;87.90
212;DHT22;16228;48.800;9.002;2023-03-23T13:46:25;19.60;87.90
212;DHT22;16228;48.800;9.002;2023-03-23T13:49:13;19.50;87.80
212;DHT22;16228;48.800;9.002;2023-03-23T13:51:52;19.30;88.70
212;DHT22;16228;48.800;9.002;2023-03-23T13:54:25;19.20;89.00
212;DHT22;16228;48.800;9.002;2023-03-23T13:56:58;19.10;89.90
212;DHT22;16228;48.800;9.002;2023-03-23T13:59:46;19.00;90.10
212;DHT22;16228;48.800;9.002;2023-03-23T14:02:34;18.60;89.20
212;DHT22;16228;48.800;9.002;2023-03-23T14:05:34;18.50;90.10
212;DHT22;16228;48.800;9.002;2023-03-23T14:08:11;18.30;90.00
212;DHT22;16228;48.800;9.002;2023-03-23T14:10:42;18.20;90.00
212;DHT22;16228;48.800;9.002;2023-03-23T14:13:16;18.30;91.00
212;DHT22;16228;48.800;9.002;2023-03-23T14:15:54;18.40;90.70
212;DHT22;16228;48.800;9.002;2023-03-23T14:18:25;18.50;91.10
212;DHT22;16228;48.800;9.002;2023-03-23T14:20:53;18.60;90.60
212;DHT22;16228;48.800;9.002;2023-03-23T14:23:20;18.60;90.00
212;DHT22;16228;48.800;9.002;2023-03-23T14:25:55;18.70;90.00
212;DHT22;16228;48.800;9.002;2023-03-23T14:28:23;18.80;89.70
212;DHT22;16228;48.800;9.002;2023-03-23T14:30:55;18.80;89.50
212;DHT22;16228;48.800;9.002;2023-03-23T14:33:25;18.80;89.60
212;DHT22;16228;48.800;9.002;2023-03-23T14:35:53;18.80;89.50
212;DHT22;16228;48.800;9.002;2023-03-23T14:38:22;18.90;89.80
212;DHT22;16228;48.800;9.002;2023-03-23T14:40:52;19.00;88.30
212;DHT22;16228;48.800;9.002;2023-03-23T14:43:22;18.90;88.30
212;DHT22;16228;48.800;9.002;2023-03-23T14:46:00;19.00;89.00
212;DHT22;16228;48.800;9.002;2023-03-23T14:48:28;19.00;87.30
212;DHT22;16228;48.800;9.002;2023-03-23T14:50:57;19.00;88.00
212;DHT22;16228;48.800;9.002;2023-03-23T14:53:25;18.80;88.90
212;DHT22;16228;48.800;9.002;2023-03-23T14:56:00;18.90;90.10
212;DHT22;16228;48.800;9.002;2023-03-23T14:58:28;19.00;88.50
212;DHT22;16228;48.800;9.002;2023-03-23T15:01:00;18.90;88.50
212;DHT22;16228;48.800;9.002;2023-03-23T15:03:35;18.90;88.60
212;DHT22;16228;48.800;9.002;2023-03-23T15:06:05;18.90;88.50
212;DHT22;16228;48.800;9.002;2023-03-23T15:08:34;18.80;87.80
212;DHT22;16228;48.800;9.002;2023-03-23T15:11:06;18.70;87.50
212;DHT22;16228;48.800;9.002;2023-03-23T15:13:35;18.80;88.40
212;DHT22;16228;48.800;9.002;2023-03-23T15:16:13;18.90;88.70
212;DHT22;16228;48.800;9.002;2023-03-23T15:18:48;19.00;88.00
212;DHT22;16228;48.800;9.002;2023-03-23T15:21:22;19.10;87.90
212;DHT22;16228;48.800;9.002;2023-03-23T15:23:51;18.90;86.00
212;DHT22;16228;48.800;9.002;2023-03-23T15:26:28;18.80;86.70
212;DHT22;16228;48.800;9.002;2023-03-23T15:29:12;18.70;87.60
212;DHT22;16228;48.800;9.002;2023-03-23T15:31:42;18.50;87.60
212;DHT22;16228;48.800;9.002;2023-03-23T15:34:30;18.30;87.60
212;DHT22;16228;48.800;9.002;2023-03-23T15:37:00;18.20;87.40
212;DHT22;16228;48.800;9.002;2023-03-23T15:39:28;18.20;88.10
212;DHT22;16228;48.800;9.002;2023-03-23T15:41:56;18.10;88.40
212;DHT22;16228;48.800;9.002;2023-03-23T15:44:29;18.00;87.70
212;DHT22;16228;48.800;9.002;2023-03-23T15:47:19;18.00;87.70
212;DHT22;16228;48.800;9.002;2023-03-23T15:50:01;18.00;88.10
212;DHT22;16228;48.800;9.002;2023-03-23T15:52:28;18.00;88.10
212;DHT22;16228;48.800;9.002;2023-03-23T15:54:56;18.10;87.80
212;DHT22;16228;48.800;9.002;2023-03-23T15:57:23;18.10;86.60
212;DHT22;16228;48.800;9.002;2023-03-23T15:59:50;18.00;87.70
212;DHT22;16228;48.800;9.002;2023-03-23T16:02:22;18.00;87.10
212;DHT22;16228;48.800;9.002;2023-03-23T16:04:50;17.90;86.90
212;DHT22;16228;48.800;9.002;2023-03-23T16:07:21;17.80;86.90
212;DHT22;16228;48.800;9.002;2023-03-23T16:09:48;17.80;87.40
212;DHT22;16228;48.800;9.002;2023-03-23T16:12:15;17.60;87.50
212;DHT22;16228;48.800;9.002;2023-03-23T16:14:42;17.60;88.10
212;DHT22;16228;48.800;9.002;2023-03-23T16:17:13;17.50;87.70
212;DHT22;16228;48.800;9.002;2023-03-23T16:19:42;17.50;88.00
212;DHT22;16228;48.800;9.002;2023-03-23T16:22:09;17.50;88.30
212;DHT22;16228;48.800;9.002;2023-03-23T16:24:36;17.30;88.90
212;DHT22;16228;48.800;9.002;2023-03-23T16:27:03;17.20;89.80
212;DHT22;16228;48.800;9.002;2023-03-23T16:29:30;17.20;91.00
212;DHT22;16228;48.800;9.002;2023-03-23T16:31:57;17.10;92.50
212;DHT22;16228;48.800;9.002;2023-03-23T16:34:24;17.00;90.90
212;DHT22;16228;48.800;9.002;2023-03-23T16:36:54;16.90;91.50
212;DHT22;16228;48.800;9.002;2023-03-23T16:39:21;16.90;91.80
212;DHT22;16228;48.800;9.002;2023-03-23T16:41:48;16.80;90.90